sensor_id;sensor_type;location;lat;lon;timestamp;pressure;altitude;pressure_sealevel;temperature;humidity
43161;BME280;40968;52.342;5.528;2023-07-09T00:01:45;101725.66;;;27.66;46.87
43161;BME280;40968;52.342;5.528;2023-07-09T00:04:11;101721.63;;;27.62;46.86
43161;BME280;40968;52.342;5.528;2023-07-09T00:06:38;101655.19;;;27.23;47.10
43161;BME280;40968;52.342;5.528;2023-07-09T00:09:12;101722.25;;;27.57;47.51
43161;BME280;40968;52.342;5.528;2023-07-09T00:11:40;101690.84;;;27.38;47.26
43161;BME280;40968;52.342;5.528;2023-07-09T00:14:08;101677.63;;;27.27;47.25
43161;BME280;40968;52.342;5.528;2023-07-09T00:16:35;101720.94;;;27.46;47.46
43161;BME280;40968;52.342;5.528;2023-07-09T00:19:02;101667.41;;;27.14;47.72
43161;BME280;40968;52.342;5.528;2023-07-09T00:21:29;101721.75;;;27.40;47.66
43161;BME280;40968;52.342;5.528;2023-07-09T00:23:59;101730.59;;;27.36;47.47
43161;BME280;40968;52.342;5.528;2023-07-09T00:26:31;101731.88;;;27.33;47.58
43161;BME280;40968;52.342;5.528;2023-07-09T00:28:58;101739.66;;;27.29;47.64
43161;BME280;40968;52.342;5.528;2023-07-09T00:31:26;101574.22;;;26.21;48.06
43161;BME280;40968;52.342;5.528;2023-07-09T00:33:53;101677.84;;;26.84;47.95
43161;BME280;40968;52.342;5.528;2023-07-09T00:36:26;101736.41;;;27.12;48.38
43161;BME280;40968;52.342;5.528;2023-07-09T00:38:53;101575.44;;;26.11;48.31
43161;BME280;40968;52.342;5.528;2023-07-09T00:41:21;101723.19;;;27.01;48.49
43161;BME280;40968;52.342;5.528;2023-07-09T00:43:51;101737.13;;;26.93;49.09
43161;BME280;40968;52.342;5.528;2023-07-09T00:49:30;101741.50;;;26.80;49.49
43161;BME280;40968;52.342;5.528;2023-07-09T00:52:00;101656.63;;;26.21;48.94
43161;BME280;40968;52.342;5.528;2023-07-09T00:54:31;101742.66;;;26.71;48.89
43161;BME280;40968;52.342;5.528;2023-07-09T00:57:05;101706.50;;;26.46;48.85
43161;BME280;40968;52.342;5.528;2023-07-09T00:59:35;101744.91;;;26.61;48.94
43161;BME280;40968;52.342;5.528;2023-07-09T01:02:03;101659.47;;;26.06;48.99
43161;BME280;40968;52.342;5.528;2023-07-09T01:04:30;101750.78;;;26.58;48.61
43161;BME280;40968;52.342;5.528;2023-07-09T01:06:57;101751.19;;;26.55;48.93
43161;BME280;40968;52.342;5.528;2023-07-09T01:09:24;101570.56;;;25.42;48.35
43161;BME280;40968;52.342;5.528;2023-07-09T01:11:51;101748.19;;;26.50;47.84
43161;BME280;40968;52.342;5.528;2023-07-09T01:14:22;101744.78;;;26.47;47.93
43161;BME280;40968;52.342;5.528;2023-07-09T01:16:55;101621.34;;;25.74;48.00
43161;BME280;40968;52.342;5.528;2023-07-09T01:19:29;101746.88;;;26.45;48.24
43161;BME280;40968;52.342;5.528;2023-07-09T01:21:58;101736.09;;;26.44;48.10
43161;BME280;40968;52.342;5.528;2023-07-09T01:24:53;101732.47;;;26.43;48.67
43161;BME280;40968;52.342;5.528;2023-07-09T01:27:23;101741.75;;;26.42;48.50
43161;BME280;40968;52.342;5.528;2023-07-09T01:29:52;101736.69;;;26.39;49.06
43161;BME280;40968;52.342;5.528;2023-07-09T01:32:20;101699.66;;;26.13;49.09
43161;BME280;40968;52.342;5.528;2023-07-09T01:34:50;101639.50;;;25.75;49.30
43161;BME280;40968;52.342;5.528;2023-07-09T01:37:25;101397.06;;;24.23;49.14
43161;BME280;40968;52.342;5.528;2023-07-09T01:39:53;101734.22;;;26.23;49.32
43161;BME280;40968;52.342;5.528;2023-07-09T01:42:21;101673.94;;;25.78;49.25
43161;BME280;40968;52.342;5.528;2023-07-09T01:44:49;101689.91;;;25.89;48.94
43161;BME280;40968;52.342;5.528;2023-07-09T01:47:16;101739.63;;;26.16;49.01
43161;BME280;40968;52.342;5.528;2023-07-09T01:49:43;101515.97;;;24.74;49.07
43161;BME280;40968;52.342;5.528;2023-07-09T01:52:13;101748.84;;;26.08;49.47
43161;BME280;40968;52.342;5.528;2023-07-09T01:54:43;101749.44;;;26.04;49.54
43161;BME280;40968;52.342;5.528;2023-07-09T01:57:17;101588.50;;;24.93;49.66
43161;BME280;40968;52.342;5.528;2023-07-09T01:59:48;101684.63;;;25.51;49.87
43161;BME280;40968;52.342;5.528;2023-07-09T02:02:15;101763.19;;;25.89;50.09
43161;BME280;40968;52.342;5.528;2023-07-09T02:04:46;101763.97;;;25.82;50.26
43161;BME280;40968;52.342;5.528;2023-07-09T02:07:13;101660.53;;;25.16;49.77
43161;BME280;40968;52.342;5.528;2023-07-09T02:09:40;101755.19;;;25.72;49.87
43161;BME280;40968;52.342;5.528;2023-07-09T02:12:10;101607.06;;;24.76;49.80
43161;BME280;40968;52.342;5.528;2023-07-09T02:14:37;101752.56;;;25.64;49.78
43161;BME280;40968;52.342;5.528;2023-07-09T02:17:04;101748.47;;;25.60;49.95
43161;BME280;40968;52.342;5.528;2023-07-09T02:19:31;101731.19;;;25.44;50.28
43161;BME280;40968;52.342;5.528;2023-07-09T02:21:57;101756.44;;;25.55;50.13
43161;BME280;40968;52.342;5.528;2023-07-09T02:24:24;101699.88;;;25.24;50.28
43161;BME280;40968;52.342;5.528;2023-07-09T02:26:53;101503.28;;;23.98;50.23
43161;BME280;40968;52.342;5.528;2023-07-09T02:29:22;101727.19;;;25.32;50.21
43161;BME280;40968;52.342;5.528;2023-07-09T02:31:50;101755.91;;;25.44;50.37
43161;BME280;40968;52.342;5.528;2023-07-09T02:34:18;101425.41;;;23.47;50.07
43161;BME280;40968;52.342;5.528;2023-07-09T02:36:45;101679.94;;;25.00;50.54
43161;BME280;40968;52.342;5.528;2023-07-09T02:39:13;101747.75;;;25.36;50.75
43161;BME280;40968;52.342;5.528;2023-07-09T02:41:40;101543.44;;;24.06;50.51
43161;BME280;40968;52.342;5.528;2023-07-09T02:44:07;101685.13;;;24.95;50.81
43161;BME280;40968;52.342;5.528;2023-07-09T02:46:35;101753.50;;;25.26;51.29
43161;BME280;40968;52.342;5.528;2023-07-09T02:49:04;101520.91;;;23.80;51.37
43161;BME280;40968;52.342;5.528;2023-07-09T02:51:31;101757.88;;;25.21;51.20
43161;BME280;40968;52.342;5.528;2023-07-09T02:54:00;101757.19;;;25.19;51.36
43161;BME280;40968;52.342;5.528;2023-07-09T02:56:27;101717.75;;;24.90;51.71
43161;BME280;40968;52.342;5.528;2023-07-09T02:58:54;101760.47;;;25.14;51.39
43161;BME280;40968;52.342;5.528;2023-07-09T03:01:23;101733.81;;;24.93;51.49
43161;BME280;40968;52.342;5.528;2023-07-09T03:03:51;101726.81;;;24.90;51.64
43161;BME280;40968;52.342;5.528;2023-07-09T03:06:19;101757.34;;;25.02;51.66
43161;BME280;40968;52.342;5.528;2023-07-09T03:08:45;101694.38;;;24.64;51.85
43161;BME280;40968;52.342;5.528;2023-07-09T03:11:14;101746.28;;;24.95;52.14
43161;BME280;40968;52.342;5.528;2023-07-09T03:13:41;101659.81;;;24.40;52.66
43161;BME280;40968;52.342;5.528;2023-07-09T03:16:08;101623.59;;;24.14;52.76
43161;BME280;40968;52.342;5.528;2023-07-09T03:18:34;101764.72;;;24.87;52.88
43161;BME280;40968;52.342;5.528;2023-07-09T03:21:02;101750.34;;;24.85;53.17
43161;BME280;40968;52.342;5.528;2023-07-09T03:23:29;101512.06;;;23.32;52.83
43161;BME280;40968;52.342;5.528;2023-07-09T03:25:56;101752.78;;;24.79;52.93
43161;BME280;40968;52.342;5.528;2023-07-09T03:28:24;101750.44;;;24.76;52.92
43161;BME280;40968;52.342;5.528;2023-07-09T03:30:54;101682.66;;;24.32;53.03
43161;BME280;40968;52.342;5.528;2023-07-09T03:33:22;101758.19;;;24.73;53.23
43161;BME280;40968;52.342;5.528;2023-07-09T03:35:49;101757.69;;;24.69;53.29
43161;BME280;40968;52.342;5.528;2023-07-09T03:38:17;101756.16;;;24.66;53.67
43161;BME280;40968;52.342;5.528;2023-07-09T03:40:44;101511.78;;;23.18;53.47
43161;BME280;40968;52.342;5.528;2023-07-09T03:43:11;101760.13;;;24.64;53.51
43161;BME280;40968;52.342;5.528;2023-07-09T03:45:38;101747.81;;;24.60;53.48
43161;BME280;40968;52.342;5.528;2023-07-09T03:48:05;101751.59;;;24.59;53.67
43161;BME280;40968;52.342;5.528;2023-07-09T03:50:32;101750.94;;;24.57;53.56
43161;BME280;40968;52.342;5.528;2023-07-09T03:52:59;101755.72;;;24.55;53.46
43161;BME280;40968;52.342;5.528;2023-07-09T03:55:28;101756.75;;;24.54;53.30
43161;BME280;40968;52.342;5.528;2023-07-09T03:57:55;101760.56;;;24.53;54.00
43161;BME280;40968;52.342;5.528;2023-07-09T04:00:22;101760.91;;;24.49;53.46
43161;BME280;40968;52.342;5.528;2023-07-09T04:02:50;101762.63;;;24.50;53.70
43161;BME280;40968;52.342;5.528;2023-07-09T04:05:16;101765.34;;;24.50;53.85
43161;BME280;40968;52.342;5.528;2023-07-09T04:07:44;101752.09;;;24.39;53.77
43161;BME280;40968;52.342;5.528;2023-07-09T04:10:11;101756.53;;;24.40;53.83
43161;BME280;40968;52.342;5.528;2023-07-09T04:12:39;101626.03;;;23.63;53.99
43161;BME280;40968;52.342;5.528;2023-07-09T04:15:07;101693.19;;;23.97;54.09
43161;BME280;40968;52.342;5.528;2023-07-09T04:17:34;101767.31;;;24.42;53.68
43161;BME280;40968;52.342;5.528;2023-07-09T04:20:01;101707.19;;;24.02;53.82
43161;BME280;40968;52.342;5.528;2023-07-09T04:22:31;101770.91;;;24.42;53.82
43161;BME280;40968;52.342;5.528;2023-07-09T04:24:58;101564.78;;;23.17;53.90
43161;BME280;40968;52.342;5.528;2023-07-09T04:27:24;101778.75;;;24.45;54.15
43161;BME280;40968;52.342;5.528;2023-07-09T04:29:54;101769.50;;;24.46;53.97
43161;BME280;40968;52.342;5.528;2023-07-09T04:32:22;101776.69;;;24.47;54.21
43161;BME280;40968;52.342;5.528;2023-07-09T04:34:49;101767.41;;;24.48;54.56
43161;BME280;40968;52.342;5.528;2023-07-09T04:37:16;101779.25;;;24.49;54.30
43161;BME280;40968;52.342;5.528;2023-07-09T04:39:43;101725.03;;;24.21;54.28
43161;BME280;40968;52.342;5.528;2023-07-09T04:42:12;101777.34;;;24.49;53.69
43161;BME280;40968;52.342;5.528;2023-07-09T04:44:39;101739.88;;;24.27;53.72
43161;BME280;40968;52.342;5.528;2023-07-09T04:47:07;101776.31;;;24.50;53.51
43161;BME280;40968;52.342;5.528;2023-07-09T04:49:34;101652.09;;;23.74;53.66
43161;BME280;40968;52.342;5.528;2023-07-09T04:52:01;101784.34;;;24.52;53.64
43161;BME280;40968;52.342;5.528;2023-07-09T04:54:28;101643.44;;;23.70;53.84
43161;BME280;40968;52.342;5.528;2023-07-09T04:56:55;101783.81;;;24.57;53.76
43161;BME280;40968;52.342;5.528;2023-07-09T04:59:24;101702.34;;;24.12;53.77
43161;BME280;40968;52.342;5.528;2023-07-09T05:01:50;101785.34;;;24.59;54.30
43161;BME280;40968;52.342;5.528;2023-07-09T05:04:18;101782.41;;;24.61;54.40
43161;BME280;40968;52.342;5.528;2023-07-09T05:06:45;101774.19;;;24.61;54.53
43161;BME280;40968;52.342;5.528;2023-07-09T05:09:12;101772.16;;;24.63;54.24
43161;BME280;40968;52.342;5.528;2023-07-09T05:11:38;101777.44;;;24.64;54.05
43161;BME280;40968;52.342;5.528;2023-07-09T05:14:05;101707.38;;;24.24;54.13
43161;BME280;40968;52.342;5.528;2023-07-09T05:16:32;101777.75;;;24.70;53.97
43161;BME280;40968;52.342;5.528;2023-07-09T05:18:58;101769.97;;;24.73;54.17
43161;BME280;40968;52.342;5.528;2023-07-09T05:21:26;101770.28;;;24.78;54.48
43161;BME280;40968;52.342;5.528;2023-07-09T05:23:53;101706.88;;;24.43;54.49
43161;BME280;40968;52.342;5.528;2023-07-09T05:26:20;101549.56;;;23.46;54.35
43161;BME280;40968;52.342;5.528;2023-07-09T05:28:47;101718.78;;;24.50;54.24
43161;BME280;40968;52.342;5.528;2023-07-09T05:31:13;101780.31;;;24.86;54.37
43161;BME280;40968;52.342;5.528;2023-07-09T05:33:40;101769.16;;;24.88;54.39
43161;BME280;40968;52.342;5.528;2023-07-09T05:36:08;101769.84;;;24.90;54.33
43161;BME280;40968;52.342;5.528;2023-07-09T05:38:40;101714.63;;;24.55;54.62
43161;BME280;40968;52.342;5.528;2023-07-09T05:41:07;101728.44;;;24.61;54.79
43161;BME280;40968;52.342;5.528;2023-07-09T05:43:33;101742.22;;;24.76;54.93
43161;BME280;40968;52.342;5.528;2023-07-09T05:46:01;101712.00;;;24.61;54.58
43161;BME280;40968;52.342;5.528;2023-07-09T05:48:27;101777.41;;;25.03;54.45
43161;BME280;40968;52.342;5.528;2023-07-09T05:50:54;101778.94;;;25.05;54.51
43161;BME280;40968;52.342;5.528;2023-07-09T05:53:21;101779.41;;;25.09;54.31
43161;BME280;40968;52.342;5.528;2023-07-09T05:55:52;101775.44;;;25.11;54.07
43161;BME280;40968;52.342;5.528;2023-07-09T05:58:19;101749.22;;;24.94;54.01
43161;BME280;40968;52.342;5.528;2023-07-09T06:00:49;101702.88;;;24.69;53.91
43161;BME280;40968;52.342;5.528;2023-07-09T06:03:17;101705.56;;;24.77;53.63
43161;BME280;40968;52.342;5.528;2023-07-09T06:05:44;101790.28;;;25.32;53.82
43161;BME280;40968;52.342;5.528;2023-07-09T06:08:11;101741.97;;;25.01;53.56
43161;BME280;40968;52.342;5.528;2023-07-09T06:10:39;101718.88;;;24.95;53.39
43161;BME280;40968;52.342;5.528;2023-07-09T06:13:10;101800.06;;;25.49;53.25
43161;BME280;40968;52.342;5.528;2023-07-09T06:15:37;101679.09;;;24.85;53.47
43161;BME280;40968;52.342;5.528;2023-07-09T06:18:04;101797.88;;;25.60;53.78
43161;BME280;40968;52.342;5.528;2023-07-09T06:20:31;101736.19;;;25.26;54.16
43161;BME280;40968;52.342;5.528;2023-07-09T06:22:58;101793.22;;;25.75;55.07
43161;BME280;40968;52.342;5.528;2023-07-09T06:25:25;101734.78;;;25.45;54.80
43161;BME280;40968;52.342;5.528;2023-07-09T06:27:52;101794.81;;;25.85;54.94
43161;BME280;40968;52.342;5.528;2023-07-09T06:30:20;101806.06;;;25.90;55.25
43161;BME280;40968;52.342;5.528;2023-07-09T06:32:47;101793.63;;;25.94;54.51
43161;BME280;40968;52.342;5.528;2023-07-09T06:35:14;101759.44;;;25.75;54.51
43161;BME280;40968;52.342;5.528;2023-07-09T06:37:40;101806.91;;;26.05;54.16
43161;BME280;40968;52.342;5.528;2023-07-09T06:40:08;101631.22;;;25.02;53.88
43161;BME280;40968;52.342;5.528;2023-07-09T06:42:35;101752.97;;;25.82;54.76
43161;BME280;40968;52.342;5.528;2023-07-09T06:45:02;101807.53;;;26.22;55.28
43161;BME280;40968;52.342;5.528;2023-07-09T06:47:31;101810.53;;;26.27;55.14
43161;BME280;40968;52.342;5.528;2023-07-09T06:49:57;101618.75;;;25.14;55.06
43161;BME280;40968;52.342;5.528;2023-07-09T06:52:24;101812.56;;;26.40;55.05
43161;BME280;40968;52.342;5.528;2023-07-09T06:54:51;101817.66;;;26.43;53.99
43161;BME280;40968;52.342;5.528;2023-07-09T06:57:17;101767.34;;;26.21;53.05
43161;BME280;40968;52.342;5.528;2023-07-09T06:59:44;101812.06;;;26.52;53.04
43161;BME280;40968;52.342;5.528;2023-07-09T07:02:11;101754.28;;;26.23;52.47
43161;BME280;40968;52.342;5.528;2023-07-09T07:04:39;101813.88;;;26.66;52.58
43161;BME280;40968;52.342;5.528;2023-07-09T07:07:07;101820.31;;;26.73;52.61
43161;BME280;40968;52.342;5.528;2023-07-09T07:09:35;101759.97;;;26.43;52.01
43161;BME280;40968;52.342;5.528;2023-07-09T07:12:02;101829.75;;;26.86;51.89
43161;BME280;40968;52.342;5.528;2023-07-09T07:14:28;101768.16;;;26.58;51.76
43161;BME280;40968;52.342;5.528;2023-07-09T07:16:56;101820.34;;;27.02;52.11
43161;BME280;40968;52.342;5.528;2023-07-09T07:19:23;101818.25;;;27.10;51.80
43161;BME280;40968;52.342;5.528;2023-07-09T07:21:51;101818.75;;;27.21;52.11
43161;BME280;40968;52.342;5.528;2023-07-09T07:24:18;101764.84;;;26.91;51.64
43161;BME280;40968;52.342;5.528;2023-07-09T07:26:44;101819.50;;;27.36;51.17
43161;BME280;40968;52.342;5.528;2023-07-09T07:29:11;101825.53;;;27.46;51.24
43161;BME280;40968;52.342;5.528;2023-07-09T07:31:38;101788.78;;;27.33;50.75
43161;BME280;40968;52.342;5.528;2023-07-09T07:34:04;101824.13;;;27.64;51.10
43161;BME280;40968;52.342;5.528;2023-07-09T07:36:31;101835.00;;;27.72;50.02
43161;BME280;40968;52.342;5.528;2023-07-09T07:38:59;101651.81;;;26.79;50.56
43161;BME280;40968;52.342;5.528;2023-07-09T07:41:26;101777.75;;;27.61;50.52
43161;BME280;40968;52.342;5.528;2023-07-09T07:43:52;101820.25;;;27.93;50.15
43161;BME280;40968;52.342;5.528;2023-07-09T07:46:19;101790.09;;;27.78;50.86
43161;BME280;40968;52.342;5.528;2023-07-09T07:48:46;101626.19;;;26.79;51.76
43161;BME280;40968;52.342;5.528;2023-07-09T07:51:12;101803.22;;;27.76;51.92
43161;BME280;40968;52.342;5.528;2023-07-09T07:53:39;101792.84;;;27.78;51.06
43161;BME280;40968;52.342;5.528;2023-07-09T07:56:07;101832.38;;;28.06;50.20
43161;BME280;40968;52.342;5.528;2023-07-09T07:58:34;101816.22;;;27.96;50.47
43161;BME280;40968;52.342;5.528;2023-07-09T08:01:00;101743.00;;;27.60;51.61
43161;BME280;40968;52.342;5.528;2023-07-09T08:03:27;101843.28;;;28.27;51.77
43161;BME280;40968;52.342;5.528;2023-07-09T08:05:54;101784.66;;;27.99;52.15
43161;BME280;40968;52.342;5.528;2023-07-09T08:08:21;101769.41;;;27.96;50.64
43161;BME280;40968;52.342;5.528;2023-07-09T08:10:49;101841.38;;;28.48;49.74
43161;BME280;40968;52.342;5.528;2023-07-09T08:13:18;101544.66;;;26.64;50.79
43161;BME280;40968;52.342;5.528;2023-07-09T08:15:46;101852.63;;;28.46;50.75
43161;BME280;40968;52.342;5.528;2023-07-09T08:18:13;101745.63;;;27.82;50.71
43161;BME280;40968;52.342;5.528;2023-07-09T08:20:43;101775.13;;;28.01;51.47
43161;BME280;40968;52.342;5.528;2023-07-09T08:23:10;101805.03;;;28.04;52.10
43161;BME280;40968;52.342;5.528;2023-07-09T08:25:36;101858.13;;;28.40;51.01
43161;BME280;40968;52.342;5.528;2023-07-09T08:28:03;101850.50;;;28.35;50.66
43161;BME280;40968;52.342;5.528;2023-07-09T08:30:31;101865.53;;;28.33;50.07
43161;BME280;40968;52.342;5.528;2023-07-09T08:32:58;101857.25;;;28.26;50.17
43161;BME280;40968;52.342;5.528;2023-07-09T08:35:26;101781.00;;;27.78;50.24
43161;BME280;40968;52.342;5.528;2023-07-09T08:37:52;101845.38;;;28.25;49.70
43161;BME280;40968;52.342;5.528;2023-07-09T08:40:19;101733.22;;;27.51;48.99
43161;BME280;40968;52.342;5.528;2023-07-09T08:42:49;101817.25;;;27.88;48.92
43161;BME280;40968;52.342;5.528;2023-07-09T08:45:26;101863.97;;;28.10;47.99
43161;BME280;40968;52.342;5.528;2023-07-09T08:48:04;101833.38;;;27.98;48.84
43161;BME280;40968;52.342;5.528;2023-07-09T08:50:35;101731.88;;;27.33;49.28
43161;BME280;40968;52.342;5.528;2023-07-09T08:53:04;101847.47;;;28.17;48.37
43161;BME280;40968;52.342;5.528;2023-07-09T08:55:33;101855.09;;;28.15;48.48
43161;BME280;40968;52.342;5.528;2023-07-09T08:58:10;101749.38;;;27.60;47.96
43161;BME280;40968;52.342;5.528;2023-07-09T09:00:43;101819.88;;;28.03;47.46
43161;BME280;40968;52.342;5.528;2023-07-09T09:03:26;101765.31;;;27.78;47.64
43161;BME280;40968;52.342;5.528;2023-07-09T09:05:55;101701.47;;;27.55;47.91
43161;BME280;40968;52.342;5.528;2023-07-09T09:08:33;101799.16;;;28.21;47.59
43161;BME280;40968;52.342;5.528;2023-07-09T09:11:11;101830.78;;;28.52;48.14
43161;BME280;40968;52.342;5.528;2023-07-09T09:13:41;101798.75;;;28.37;47.87
43161;BME280;40968;52.342;5.528;2023-07-09T09:16:17;101673.78;;;27.70;48.56
43161;BME280;40968;52.342;5.528;2023-07-09T09:18:49;101762.72;;;28.39;49.04
43161;BME280;40968;52.342;5.528;2023-07-09T09:21:22;101835.31;;;28.93;47.89
43161;BME280;40968;52.342;5.528;2023-07-09T09:23:51;101801.78;;;28.83;47.86
43161;BME280;40968;52.342;5.528;2023-07-09T09:26:24;101848.03;;;29.21;47.75
43161;BME280;40968;52.342;5.528;2023-07-09T09:28:53;101726.22;;;28.63;46.68
43161;BME280;40968;52.342;5.528;2023-07-09T09:31:21;101859.50;;;29.38;46.90
43161;BME280;40968;52.342;5.528;2023-07-09T09:33:49;101842.47;;;29.48;46.84
43161;BME280;40968;52.342;5.528;2023-07-09T09:36:19;101840.34;;;29.50;45.85
43161;BME280;40968;52.342;5.528;2023-07-09T09:38:46;101647.38;;;28.42;46.27
43161;BME280;40968;52.342;5.528;2023-07-09T09:41:18;101829.06;;;29.58;45.40
43161;BME280;40968;52.342;5.528;2023-07-09T09:43:47;101794.06;;;29.38;46.01
43161;BME280;40968;52.342;5.528;2023-07-09T09:46:18;101778.16;;;29.40;46.50
43161;BME280;40968;52.342;5.528;2023-07-09T09:48:49;101790.19;;;29.59;45.87
43161;BME280;40968;52.342;5.528;2023-07-09T09:51:17;101788.88;;;29.69;45.86
43161;BME280;40968;52.342;5.528;2023-07-09T09:53:48;101828.66;;;30.06;44.92
43161;BME280;40968;52.342;5.528;2023-07-09T09:56:19;101822.91;;;30.15;43.91
43161;BME280;40968;52.342;5.528;2023-07-09T09:58:52;101789.59;;;29.96;43.23
43161;BME280;40968;52.342;5.528;2023-07-09T10:01:22;101658.22;;;29.30;42.91
43161;BME280;40968;52.342;5.528;2023-07-09T10:03:55;101690.41;;;29.49;42.56
43161;BME280;40968;52.342;5.528;2023-07-09T10:06:30;101630.63;;;29.23;42.88
43161;BME280;40968;52.342;5.528;2023-07-09T10:09:04;101812.28;;;30.43;41.79
43161;BME280;40968;52.342;5.528;2023-07-09T10:11:39;101809.31;;;30.45;41.90
43161;BME280;40968;52.342;5.528;2023-07-09T10:14:23;101715.28;;;29.88;41.36
43161;BME280;40968;52.342;5.528;2023-07-09T10:16:55;101772.00;;;30.29;41.74
43161;BME280;40968;52.342;5.528;2023-07-09T10:19:32;101822.78;;;30.67;40.76
43161;BME280;40968;52.342;5.528;2023-07-09T10:22:04;101766.00;;;30.32;41.49
43161;BME280;40968;52.342;5.528;2023-07-09T10:24:40;101809.50;;;30.75;40.97
43161;BME280;40968;52.342;5.528;2023-07-09T10:27:12;101699.72;;;30.25;41.68
43161;BME280;40968;52.342;5.528;2023-07-09T10:30:04;101793.59;;;30.96;40.97
43161;BME280;40968;52.342;5.528;2023-07-09T10:32:47;101787.09;;;31.09;40.41
43161;BME280;40968;52.342;5.528;2023-07-09T10:35:24;101555.91;;;29.82;40.50
43161;BME280;40968;52.342;5.528;2023-07-09T10:38:03;101778.72;;;31.34;39.42
43161;BME280;40968;52.342;5.528;2023-07-09T10:40:37;101785.50;;;31.38;40.19
43161;BME280;40968;52.342;5.528;2023-07-09T10:43:10;101782.41;;;31.47;38.70
43161;BME280;40968;52.342;5.528;2023-07-09T10:45:42;101764.25;;;31.32;38.56
43161;BME280;40968;52.342;5.528;2023-07-09T10:48:14;101708.75;;;31.08;39.01
43161;BME280;40968;52.342;5.528;2023-07-09T10:50:47;101571.75;;;30.43;39.48
43161;BME280;40968;52.342;5.528;2023-07-09T10:53:25;101759.94;;;31.73;38.97
43161;BME280;40968;52.342;5.528;2023-07-09T10:55:59;101790.34;;;32.11;38.96
43161;BME280;40968;52.342;5.528;2023-07-09T10:58:32;101757.06;;;32.11;38.61
43161;BME280;40968;52.342;5.528;2023-07-09T11:01:02;101686.97;;;31.80;38.44
43161;BME280;40968;52.342;5.528;2023-07-09T11:03:37;101597.47;;;31.49;38.01
43161;BME280;40968;52.342;5.528;2023-07-09T11:06:13;101766.25;;;32.65;37.95
43161;BME280;40968;52.342;5.528;2023-07-09T11:08:41;101803.09;;;33.08;38.26
43161;BME280;40968;52.342;5.528;2023-07-09T11:11:13;101801.50;;;33.24;37.99
43161;BME280;40968;52.342;5.528;2023-07-09T11:13:42;101738.41;;;32.96;37.67
43161;BME280;40968;52.342;5.528;2023-07-09T11:16:13;101755.25;;;33.18;37.70
43161;BME280;40968;52.342;5.528;2023-07-09T11:18:53;101797.34;;;33.62;37.01
43161;BME280;40968;52.342;5.528;2023-07-09T11:21:22;101744.25;;;33.47;37.30
43161;BME280;40968;52.342;5.528;2023-07-09T11:23:51;101735.72;;;33.65;37.66
43161;BME280;40968;52.342;5.528;2023-07-09T11:26:23;101774.53;;;33.89;36.97
43161;BME280;40968;52.342;5.528;2023-07-09T11:28:52;101678.06;;;33.44;37.26
43161;BME280;40968;52.342;5.528;2023-07-09T11:31:25;101757.75;;;34.13;37.67
43161;BME280;40968;52.342;5.528;2023-07-09T11:34:07;101722.69;;;33.95;36.89
43161;BME280;40968;52.342;5.528;2023-07-09T11:36:47;101753.97;;;34.19;36.59
43161;BME280;40968;52.342;5.528;2023-07-09T11:39:20;101717.13;;;33.95;37.45
43161;BME280;40968;52.342;5.528;2023-07-09T11:41:48;101665.81;;;33.57;37.65
43161;BME280;40968;52.342;5.528;2023-07-09T11:44:17;101757.25;;;34.16;37.14
43161;BME280;40968;52.342;5.528;2023-07-09T11:46:58;101760.28;;;33.97;36.83
43161;BME280;40968;52.342;5.528;2023-07-09T11:49:31;101700.00;;;33.57;37.25
43161;BME280;40968;52.342;5.528;2023-07-09T11:52:03;101757.66;;;33.91;37.35
43161;BME280;40968;52.342;5.528;2023-07-09T11:54:34;101766.63;;;33.81;37.65
43161;BME280;40968;52.342;5.528;2023-07-09T11:57:02;101764.09;;;33.79;38.09
43161;BME280;40968;52.342;5.528;2023-07-09T11:59:29;101768.59;;;33.68;38.15
43161;BME280;40968;52.342;5.528;2023-07-09T12:01:56;101723.50;;;33.37;38.08
43161;BME280;40968;52.342;5.528;2023-07-09T12:04:31;101730.63;;;33.21;38.82
43161;BME280;40968;52.342;5.528;2023-07-09T12:07:01;101730.41;;;33.11;38.64
43161;BME280;40968;52.342;5.528;2023-07-09T12:09:40;101579.91;;;32.33;39.06
43161;BME280;40968;52.342;5.528;2023-07-09T12:12:17;101778.41;;;33.59;38.81
43161;BME280;40968;52.342;5.528;2023-07-09T12:14:44;101774.75;;;33.59;38.87
43161;BME280;40968;52.342;5.528;2023-07-09T12:17:11;101596.56;;;32.33;38.43
43161;BME280;40968;52.342;5.528;2023-07-09T12:19:38;101678.69;;;32.46;38.01
43161;BME280;40968;52.342;5.528;2023-07-09T12:22:13;101776.41;;;32.71;38.60
43161;BME280;40968;52.342;5.528;2023-07-09T12:24:43;101776.72;;;32.51;38.75
43161;BME280;40968;52.342;5.528;2023-07-09T12:27:19;101674.44;;;31.58;39.41
43161;BME280;40968;52.342;5.528;2023-07-09T12:29:47;101603.09;;;30.74;39.72
43161;BME280;40968;52.342;5.528;2023-07-09T12:32:16;101728.09;;;31.27;40.08
43161;BME280;40968;52.342;5.528;2023-07-09T12:34:47;101656.72;;;30.73;40.31
43161;BME280;40968;52.342;5.528;2023-07-09T12:37:15;101707.50;;;31.04;40.52
43161;BME280;40968;52.342;5.528;2023-07-09T12:39:43;101540.16;;;29.89;41.19
43161;BME280;40968;52.342;5.528;2023-07-09T12:42:16;101759.19;;;31.29;40.69
43161;BME280;40968;52.342;5.528;2023-07-09T12:44:43;101594.81;;;30.56;40.62
43161;BME280;40968;52.342;5.528;2023-07-09T12:47:13;101763.25;;;31.82;39.53
43161;BME280;40968;52.342;5.528;2023-07-09T12:49:41;101655.84;;;31.17;38.93
43161;BME280;40968;52.342;5.528;2023-07-09T12:52:13;101757.72;;;31.82;39.22
43161;BME280;40968;52.342;5.528;2023-07-09T12:54:50;101763.31;;;31.94;38.86
43161;BME280;40968;52.342;5.528;2023-07-09T12:57:18;101719.63;;;31.59;38.53
43161;BME280;40968;52.342;5.528;2023-07-09T12:59:45;101683.97;;;31.51;38.52
43161;BME280;40968;52.342;5.528;2023-07-09T13:02:17;101785.22;;;32.26;39.09
43161;BME280;40968;52.342;5.528;2023-07-09T13:04:45;101781.44;;;32.51;38.36